Time;durP1;ratioP1;P1;durP2;ratioP2;P2;SDS_P1;SDS_P2;PMS_P1;PMS_P2;Temp;Humidity;BMP_temperature;BMP_pressure;BME280_temperature;BME280_humidity;BME280_pressure;Samples;Min_cycle;Max_cycle;Signal;HPM_P1;HPM_P2
2021/12/20 00:00:21;;;;;;;0.30;0.30;;;;;;;4.23;92.77;101835.41;5000182;28;20042;-70
2021/12/20 00:02:54;;;;;;;0.43;0.43;;;;;;;4.16;92.17;101837.63;4996211;28;20026;-70
2021/12/20 00:05:21;;;;;;;1.73;1.10;;;;;;;4.18;91.87;101840.78;4991559;28;20046;-70
2021/12/20 00:07:46;;;;;;;3.95;0.93;;;;;;;4.06;92.77;101840.38;4992918;28;20034;-70
2021/12/20 00:10:14;;;;;;;4.13;0.55;;;;;;;3.97;93.05;101839.41;4992773;28;20093;-70
2021/12/20 00:12:40;;;;;;;1.75;0.90;;;;;;;3.97;93.09;101850.06;4991785;28;20169;-70
2021/12/20 00:15:06;;;;;;;1.45;0.77;;;;;;;3.97;92.84;101850.06;4991989;28;20129;-70
2021/12/20 00:17:31;;;;;;;1.80;0.63;;;;;;;3.96;92.76;101843.13;4991692;28;20141;-70
2021/12/20 00:19:56;;;;;;;5.03;0.73;;;;;;;3.98;92.34;101856.97;4995825;28;20570;-70
2021/12/20 00:22:25;;;;;;;2.45;0.80;;;;;;;4.11;91.05;101851.78;4991083;28;20058;-70
2021/12/20 00:24:50;;;;;;;0.82;0.82;;;;;;;3.94;91.49;101847.94;4991090;28;20074;-70
2021/12/20 00:27:19;;;;;;;1.08;0.68;;;;;;;4.22;89.82;101845.25;4992133;28;20045;-70
2021/12/20 00:29:46;;;;;;;0.95;0.68;;;;;;;4.18;89.90;101846.91;4997248;28;20034;-70
2021/12/20 00:32:13;;;;;;;0.50;0.50;;;;;;;3.95;90.51;101847.66;4991491;28;20097;-70
2021/12/20 00:34:40;;;;;;;1.05;0.55;;;;;;;3.85;91.41;101853.09;4986506;28;20038;-70
2021/12/20 00:40:19;;;;;;;2.65;1.35;;;;;;;3.81;91.55;101852.06;4976504;28;20053;-70
2021/12/20 00:42:35;;;;;;;6.25;0.77;;;;;;;3.76;91.57;101851.28;5005151;28;20434;-70
2021/12/20 00:45:01;;;;;;;2.45;0.45;;;;;;;3.74;91.84;101856.09;4998154;28;20042;-70
2021/12/20 00:47:30;;;;;;;1.55;0.55;;;;;;;3.68;91.99;101866.81;4989205;28;20410;-70
2021/12/20 00:49:55;;;;;;;3.25;0.52;;;;;;;3.72;90.82;101864.38;5006510;28;20038;-70
2021/12/20 00:52:21;;;;;;;0.88;0.70;;;;;;;3.65;91.55;101870.03;4987396;28;20030;-70
2021/12/20 00:54:46;;;;;;;2.00;0.38;;;;;;;3.62;92.01;101859.94;4989981;28;20143;-70
2021/12/20 00:57:12;;;;;;;1.83;0.80;;;;;;;3.60;92.05;101853.31;4990558;28;20037;-71
2021/12/20 00:59:37;;;;;;;0.40;0.40;;;;;;;3.68;91.83;101856.16;4997008;28;20625;-70
2021/12/20 01:02:03;;;;;;;2.25;1.02;;;;;;;3.82;90.60;101855.50;5004513;28;20026;-70
2021/12/20 01:04:28;;;;;;;6.43;0.70;;;;;;;3.63;91.40;101866.84;5017205;28;20046;-70
2021/12/20 01:06:56;;;;;;;0.32;0.30;;;;;;;3.58;91.69;101866.09;4990454;28;20026;-70
2021/12/20 01:09:25;;;;;;;1.15;0.80;;;;;;;3.55;91.71;101866.66;4991899;28;20054;-70
2021/12/20 01:11:53;;;;;;;0.98;0.40;;;;;;;3.55;91.94;101877.28;4990959;28;20041;-70
2021/12/20 01:14:24;;;;;;;1.02;0.55;;;;;;;3.73;90.58;101863.31;4988663;28;20472;-70
2021/12/20 01:16:50;;;;;;;1.38;1.33;;;;;;;3.60;90.53;101856.75;4992179;28;20048;-69
2021/12/20 01:19:16;;;;;;;0.82;0.60;;;;;;;3.76;89.71;101859.28;5010859;28;20037;-70
2021/12/20 01:21:41;;;;;;;0.30;0.30;;;;;;;3.65;90.17;101859.38;4995136;28;20403;-69
2021/12/20 01:24:07;;;;;;;0.75;0.60;;;;;;;3.61;90.10;101873.53;4987247;28;20030;-70
2021/12/20 01:26:32;;;;;;;0.40;0.35;;;;;;;3.46;90.87;101873.63;5001452;28;20554;-70
2021/12/20 01:28:58;;;;;;;5.35;0.70;;;;;;;3.34;91.52;101871.31;5004846;28;20030;-70
2021/12/20 01:31:23;;;;;;;0.32;0.30;;;;;;;3.34;91.87;101867.84;5002512;28;20060;-70
2021/12/20 01:33:49;;;;;;;0.40;0.40;;;;;;;3.35;91.77;101880.06;4989990;28;20403;-70
2021/12/20 01:36:14;;;;;;;1.75;0.40;;;;;;;3.32;92.10;101875.31;4991346;28;20117;-70
2021/12/20 01:38:40;;;;;;;0.55;0.40;;;;;;;3.34;91.83;101870.50;4986291;28;20478;-69
2021/12/20 01:41:07;;;;;;;0.28;0.28;;;;;;;3.53;90.64;101866.13;4989401;28;20113;-69
2021/12/20 01:43:33;;;;;;;0.77;0.55;;;;;;;3.63;89.64;101866.06;4984991;28;20030;-69
2021/12/20 01:45:59;;;;;;;0.30;0.30;;;;;;;3.66;89.06;101874.28;4998745;28;20041;-69
2021/12/20 01:48:26;;;;;;;0.63;0.50;;;;;;;3.53;89.88;101866.13;4990548;28;20048;-69
2021/12/20 01:53:35;;;;;;;1.10;0.60;;;;;;;3.58;89.04;101858.88;4989476;28;20125;-69
2021/12/20 01:56:02;;;;;;;0.52;0.40;;;;;;;3.31;90.37;101857.78;4997945;28;20036;-69
2021/12/20 01:58:29;;;;;;;0.73;0.40;;;;;;;3.19;91.09;101850.13;4988728;28;20049;-69
2021/12/20 02:03:47;;;;;;;0.60;0.47;;;;;;;3.09;91.76;101858.16;4987875;28;20026;-69
2021/12/20 02:06:22;;;;;;;0.32;0.32;;;;;;;3.11;91.63;101853.38;4989983;28;20050;-68
2021/12/20 02:08:50;;;;;;;0.30;0.30;;;;;;;3.18;91.44;101853.84;4974965;28;20579;-69
2021/12/20 02:11:25;;;;;;;0.30;0.30;;;;;;;3.33;90.57;101861.72;4989515;28;20037;-69
2021/12/20 02:13:51;;;;;;;0.30;0.30;;;;;;;3.16;90.90;101850.66;4989788;28;20041;-69
2021/12/20 02:16:18;;;;;;;0.88;0.52;;;;;;;3.06;91.42;101850.72;4990523;28;20125;-69
2021/12/20 02:18:44;;;;;;;2.15;0.65;;;;;;;3.11;91.31;101852.56;4988599;28;20034;-69
2021/12/20 02:21:09;;;;;;;0.47;0.47;;;;;;;3.05;91.66;101851.81;4982772;28;20039;-69
2021/12/20 02:23:35;;;;;;;0.30;0.30;;;;;;;3.04;91.52;101850.19;4973070;28;20027;-69
2021/12/20 02:26:01;;;;;;;4.63;0.38;;;;;;;3.03;91.75;101847.81;4994021;23;20498;-68
2021/12/20 02:28:36;;;;;;;2.85;0.77;;;;;;;3.00;91.76;101851.81;4975116;28;20039;-69
2021/12/20 02:39:20;;;;;;;3.97;0.75;;;;;;;2.92;91.62;101865.72;4990477;28;20037;-69
2021/12/20 02:41:45;;;;;;;0.55;0.22;;;;;;;2.92;91.30;101859.59;4989332;28;20046;-69
2021/12/20 02:44:17;;;;;;;3.22;0.90;;;;;;;3.07;90.54;101852.31;4987949;28;20402;-68
2021/12/20 02:49:23;;;;;;;0.65;0.45;;;;;;;3.09;89.84;101850.19;4990813;28;20038;-69
2021/12/20 02:51:54;;;;;;;0.30;0.30;;;;;;;3.06;89.46;101861.34;4990325;28;20056;-69
2021/12/20 02:54:22;;;;;;;0.68;0.40;;;;;;;2.93;90.39;101867.28;4989233;28;20506;-68
2021/12/20 02:56:49;;;;;;;1.17;0.40;;;;;;;2.86;90.95;101866.78;4993339;28;20503;-68
2021/12/20 02:59:15;;;;;;;0.30;0.30;;;;;;;2.82;91.25;101860.44;4993507;28;20057;-69
2021/12/20 03:01:45;;;;;;;0.60;0.40;;;;;;;2.77;91.17;101865.75;4994216;28;20165;-70
2021/12/20 03:04:11;;;;;;;0.40;0.40;;;;;;;2.97;90.47;101855.03;4991218;28;20399;-69
2021/12/20 03:06:44;;;;;;;0.65;0.30;;;;;;;3.06;89.29;101857.94;4994441;28;20093;-69
2021/12/20 03:09:17;;;;;;;0.40;0.30;;;;;;;3.15;88.78;101862.41;4993787;28;20034;-68
2021/12/20 03:11:44;;;;;;;0.50;0.50;;;;;;;3.06;89.15;101858.69;4993715;28;20043;-68
2021/12/20 03:14:21;;;;;;;13.00;0.80;;;;;;;2.83;89.89;101859.34;4992652;28;20073;-69
2021/12/20 03:16:47;;;;;;;1.13;0.43;;;;;;;2.72;90.88;101871.09;4993565;28;20173;-69
2021/12/20 03:19:12;;;;;;;3.70;0.68;;;;;;;2.67;91.11;101871.91;4994130;28;20117;-69
2021/12/20 03:21:38;;;;;;;0.13;0.13;;;;;;;2.68;91.36;101868.19;4994171;28;20046;-68
2021/12/20 03:24:04;;;;;;;0.20;0.20;;;;;;;2.62;91.09;101857.84;4991931;28;20037;-68
2021/12/20 03:26:30;;;;;;;0.65;0.45;;;;;;;2.59;91.25;101863.72;4993656;28;20038;-68
2021/12/20 03:28:55;;;;;;;0.30;0.28;;;;;;;2.58;91.55;101856.78;4994167;28;20030;-68
2021/12/20 03:31:21;;;;;;;0.60;0.35;;;;;;;2.56;91.57;101856.25;4992652;28;20042;-69
2021/12/20 03:33:46;;;;;;;0.70;0.70;;;;;;;2.79;89.89;101849.56;4993256;28;20029;-68
2021/12/20 03:36:12;;;;;;;0.32;0.32;;;;;;;2.88;89.61;101854.03;4993345;28;20038;-69
2021/12/20 03:38:37;;;;;;;0.32;0.32;;;;;;;2.79;89.42;101845.00;4993331;28;20491;-69
2021/12/20 03:41:03;;;;;;;1.60;0.40;;;;;;;2.94;89.04;101852.13;4991446;28;20128;-69
2021/12/20 03:43:31;;;;;;;0.70;0.43;;;;;;;2.80;89.27;101849.28;4985792;28;20039;-68
2021/12/20 03:46:01;;;;;;;1.23;0.30;;;;;;;2.79;89.98;101852.97;4981315;28;20045;-68
2021/12/20 03:48:27;;;;;;;0.20;0.20;;;;;;;2.80;89.87;101851.94;4980992;28;20038;-69
2021/12/20 03:50:53;;;;;;;0.40;0.40;;;;;;;2.62;89.81;101863.16;4993188;28;20038;-69
2021/12/20 03:53:19;;;;;;;0.20;0.20;;;;;;;2.46;90.86;101854.44;4993016;28;20106;-69
2021/12/20 03:55:44;;;;;;;0.30;0.25;;;;;;;2.42;91.47;101860.59;4993347;28;20117;-69
2021/12/20 03:58:10;;;;;;;0.20;0.20;;;;;;;2.41;91.73;101866.94;4992654;28;20129;-68
2021/12/20 04:00:36;;;;;;;0.22;0.22;;;;;;;2.49;91.18;101858.44;4996590;28;20026;-68
2021/12/20 04:03:07;;;;;;;0.65;0.40;;;;;;;2.41;91.58;101861.63;4992406;28;20546;-68
2021/12/20 04:05:32;;;;;;;;;;;;;;;2.40;91.75;101865.38;4993634;28;20049;-69
2021/12/20 04:07:58;;;;;;;0.50;0.50;;;;;;;2.36;91.86;101861.66;4981404;28;20362;-69
2021/12/20 04:10:23;;;;;;;0.55;0.55;;;;;;;2.35;91.90;101862.72;5001524;28;20041;-69
2021/12/20 04:12:48;;;;;;;0.55;0.52;;;;;;;2.35;91.53;101862.72;5011421;28;20037;-68
2021/12/20 04:15:14;;;;;;;0.65;0.32;;;;;;;2.34;91.56;101879.72;4992918;28;20031;-68
2021/12/20 04:17:39;;;;;;;0.73;0.43;;;;;;;2.33;91.92;101859.53;5001367;28;20030;-69
2021/12/20 04:20:05;;;;;;;0.40;0.32;;;;;;;2.28;92.05;101867.53;5000311;28;20501;-69
2021/12/20 04:22:32;;;;;;;1.33;0.50;;;;;;;2.25;92.23;101870.69;4992922;28;20436;-68
2021/12/20 04:24:58;;;;;;;0.35;0.35;;;;;;;2.26;91.83;101881.06;4989174;28;20068;-68
2021/12/20 04:27:23;;;;;;;1.55;0.73;;;;;;;2.24;92.14;101883.22;5000009;28;20058;-68
2021/12/20 04:29:49;;;;;;;0.30;0.30;;;;;;;2.23;92.04;101878.13;4992231;28;20525;-68
2021/12/20 04:32:15;;;;;;;0.10;0.10;;;;;;;2.11;92.48;101881.06;4990357;28;20042;-68
2021/12/20 04:34:43;;;;;;;2.35;0.75;;;;;;;2.13;92.60;101870.97;4998425;28;20394;-68
2021/12/20 04:37:09;;;;;;;5.90;0.52;;;;;;;2.23;92.39;101870.16;5010676;28;20116;-69
2021/12/20 04:39:34;;;;;;;0.40;0.30;;;;;;;2.19;92.64;101869.13;5012418;28;20052;-68
2021/12/20 04:42:00;;;;;;;1.88;0.50;;;;;;;2.35;91.73;101874.13;5008236;28;20043;-69
2021/12/20 04:44:26;;;;;;;0.43;0.30;;;;;;;2.24;91.82;101869.91;4988746;28;20038;-68
2021/12/20 04:46:52;;;;;;;0.95;0.50;;;;;;;2.26;92.17;101874.97;4999846;28;20076;-68
2021/12/20 04:49:17;;;;;;;0.65;0.55;;;;;;;2.22;92.26;101872.06;4999335;28;20038;-69
2021/12/20 04:51:43;;;;;;;0.90;0.50;;;;;;;2.19;92.33;101875.22;4992403;28;20045;-68
2021/12/20 04:54:08;;;;;;;1.02;0.63;;;;;;;2.19;92.65;101877.09;4990208;28;20069;-68
2021/12/20 04:56:37;;;;;;;0.50;0.50;;;;;;;2.20;92.53;101889.31;5003508;28;20040;-68
2021/12/20 04:59:03;;;;;;;0.55;0.25;;;;;;;2.18;92.36;101886.13;5011598;28;20042;-69
2021/12/20 05:01:28;;;;;;;5.30;0.52;;;;;;;2.19;92.42;101887.72;5011880;28;20045;-68
2021/12/20 05:03:54;;;;;;;0.85;0.50;;;;;;;2.13;91.96;101886.16;4996742;28;20533;-68
2021/12/20 05:06:19;;;;;;;0.30;0.30;;;;;;;2.07;92.21;101881.91;5003096;28;20046;-68
2021/12/20 05:08:50;;;;;;;1.70;0.63;;;;;;;2.11;92.48;101880.31;5012000;28;20083;-68
2021/12/20 05:11:16;;;;;;;0.20;0.20;;;;;;;2.17;91.89;101879.25;5006818;28;20049;-68
2021/12/20 05:13:42;;;;;;;0.50;0.50;;;;;;;2.27;91.56;101874.69;4999086;28;20399;-68
2021/12/20 05:16:09;;;;;;;0.43;0.43;;;;;;;2.28;91.04;101880.81;5003774;28;20367;-69
2021/12/20 05:18:37;;;;;;;1.50;0.40;;;;;;;2.22;91.19;101887.19;5005380;28;20045;-68
2021/12/20 05:21:03;;;;;;;0.75;0.65;;;;;;;2.14;91.87;101887.72;5011464;28;20029;-68
2021/12/20 05:23:28;;;;;;;0.65;0.47;;;;;;;2.08;92.24;101881.63;5001967;28;20056;-68
2021/12/20 05:25:55;;;;;;;0.52;0.52;;;;;;;2.05;92.51;101881.38;4996134;28;20517;-68
2021/12/20 05:28:21;;;;;;;0.73;0.60;;;;;;;2.04;92.30;101891.19;4990384;28;20049;-68
2021/12/20 05:30:50;;;;;;;0.80;0.45;;;;;;;2.05;92.80;101892.78;4989939;28;20062;-69
2021/12/20 05:33:15;;;;;;;1.20;0.45;;;;;;;2.24;91.11;101885.88;4999581;28;20050;-68
2021/12/20 05:35:41;;;;;;;0.60;0.47;;;;;;;2.37;89.96;101889.81;5010057;28;20037;-69
2021/12/20 05:38:06;;;;;;;4.95;0.45;;;;;;;2.16;90.70;101890.91;5011394;28;20431;-69
2021/12/20 05:40:32;;;;;;;0.65;0.40;;;;;;;2.07;91.17;101889.88;4999826;28;20659;-68
2021/12/20 05:42:57;;;;;;;1.65;0.43;;;;;;;2.04;91.44;101893.84;5000910;28;20049;-69
2021/12/20 05:45:23;;;;;;;0.40;0.40;;;;;;;2.07;91.57;101905.81;4988383;28;20085;-68
2021/12/20 05:47:49;;;;;;;0.28;0.28;;;;;;;2.02;91.44;101905.78;4985337;28;20042;-68
2021/12/20 05:50:20;;;;;;;0.40;0.40;;;;;;;1.94;91.88;101901.81;4995718;28;20542;-68
2021/12/20 05:52:46;;;;;;;0.60;0.60;;;;;;;1.92;91.94;101900.50;5006130;28;20037;-69
2021/12/20 05:55:13;;;;;;;2.15;0.30;;;;;;;1.91;92.30;101904.19;5005879;28;20046;-68
2021/12/20 05:57:39;;;;;;;0.52;0.28;;;;;;;1.90;91.90;101906.06;4983106;28;20084;-69
2021/12/20 06:00:12;;;;;;;0.98;0.57;;;;;;;1.91;92.45;101906.84;4982389;28;20518;-68
2021/12/20 06:02:41;;;;;;;0.45;0.20;;;;;;;1.90;92.14;101907.94;4981505;28;20038;-69
2021/12/20 06:05:07;;;;;;;6.22;0.80;;;;;;;1.88;92.43;101912.72;4970015;28;20034;-69
2021/12/20 06:07:39;;;;;;;0.22;0.22;;;;;;;1.85;92.00;101908.72;4988248;28;20033;-69
2021/12/20 06:10:06;;;;;;;0.88;0.50;;;;;;;1.82;92.53;101915.34;4999320;28;20507;-69
2021/12/20 06:12:32;;;;;;;0.55;0.40;;;;;;;1.79;92.50;101907.13;4984847;28;20500;-69
2021/12/20 06:14:57;;;;;;;1.15;0.77;;;;;;;1.79;92.76;101905.28;4989276;28;20121;-69
2021/12/20 06:17:23;;;;;;;0.85;0.47;;;;;;;1.84;91.82;101905.25;4989249;28;20045;-69
2021/12/20 06:19:48;;;;;;;0.93;0.45;;;;;;;1.80;92.43;101906.84;4980523;28;20064;-69
2021/12/20 06:22:13;;;;;;;0.40;0.40;;;;;;;1.80;92.36;101922.00;4977318;28;20041;-69
2021/12/20 06:24:42;;;;;;;0.30;0.30;;;;;;;1.79;92.18;101918.53;4970801;28;20034;-69
2021/12/20 06:27:07;;;;;;;0.63;0.50;;;;;;;1.79;92.58;101921.19;4988010;28;20034;-69
2021/12/20 06:29:33;;;;;;;1.33;0.47;;;;;;;1.80;92.44;101920.13;4978315;28;20463;-69
2021/12/20 06:31:59;;;;;;;0.28;0.28;;;;;;;1.80;92.47;101920.13;4994330;28;20353;-69
2021/12/20 06:34:27;;;;;;;0.30;0.30;;;;;;;1.78;93.03;101916.16;5000647;28;20121;-69
2021/12/20 06:36:52;;;;;;;0.55;0.40;;;;;;;1.78;92.89;101919.59;5012162;28;20041;-69
2021/12/20 06:39:18;;;;;;;0.75;0.60;;;;;;;1.77;92.76;101917.22;5017148;28;20108;-69
2021/12/20 06:41:43;;;;;;;0.20;0.20;;;;;;;1.72;93.33;101925.94;5010245;28;20034;-69
2021/12/20 06:44:09;;;;;;;0.50;0.50;;;;;;;1.74;93.19;101923.84;5006281;28;20050;-69
2021/12/20 06:46:43;;;;;;;0.50;0.50;;;;;;;1.76;93.00;101919.06;5017371;28;20053;-69
2021/12/20 06:49:10;;;;;;;1.63;0.47;;;;;;;1.75;93.19;101925.44;5017246;28;20536;-69
2021/12/20 06:51:43;;;;;;;1.13;0.93;;;;;;;1.75;93.17;101922.00;5000937;28;20041;-69
2021/12/20 06:54:14;;;;;;;0.90;0.60;;;;;;;1.76;93.11;101927.03;5007805;28;20034;-69
2021/12/20 06:56:40;;;;;;;;;;;;;;;1.73;93.12;101932.88;4999814;28;20050;-69
2021/12/20 06:59:05;;;;;;;0.63;0.47;;;;;;;1.72;93.09;101928.59;5014717;28;19920;-69
2021/12/20 07:01:31;;;;;;;0.93;0.68;;;;;;;1.68;92.86;101932.06;5002928;28;20041;-68
2021/12/20 07:03:57;;;;;;;0.45;0.45;;;;;;;1.65;93.01;101928.09;5012892;28;20034;-69
2021/12/20 07:06:23;;;;;;;0.35;0.35;;;;;;;1.63;93.04;101937.34;5017023;28;20584;-69
2021/12/20 07:08:48;;;;;;;1.33;0.55;;;;;;;1.63;93.27;101935.50;5009597;28;20129;-69
2021/12/20 07:11:19;;;;;;;0.80;0.40;;;;;;;1.63;93.53;101932.84;5014738;28;20117;-69
2021/12/20 07:13:44;;;;;;;0.55;0.55;;;;;;;1.60;93.16;101940.56;5016431;28;20864;-69
2021/12/20 07:16:11;;;;;;;0.38;0.30;;;;;;;1.59;93.23;101942.41;5016917;28;20042;-68
2021/12/20 07:18:37;;;;;;;0.47;0.47;;;;;;;1.56;93.12;101947.44;5000541;28;20034;-68
2021/12/20 07:21:02;;;;;;;1.27;0.75;;;;;;;1.54;93.74;101947.72;5007757;28;20483;-69
2021/12/20 07:23:30;;;;;;;0.28;0.28;;;;;;;1.54;93.86;101952.22;5016039;28;20564;-69
2021/12/20 07:25:56;;;;;;;1.23;0.60;;;;;;;1.50;93.37;101949.28;5009151;28;20518;-69
2021/12/20 07:28:22;;;;;;;0.95;0.93;;;;;;;1.54;93.25;101945.06;5002322;28;20030;-69
2021/12/20 07:30:48;;;;;;;0.90;0.30;;;;;;;1.57;93.25;101956.97;5011779;28;20176;-69
2021/12/20 07:33:15;;;;;;;0.88;0.47;;;;;;;1.59;93.67;101960.16;5015805;28;20068;-69
2021/12/20 07:35:42;;;;;;;0.60;0.60;;;;;;;1.59;93.49;101965.47;5000859;28;20538;-68
2021/12/20 07:38:12;;;;;;;0.70;0.30;;;;;;;1.57;93.53;101970.25;4995962;28;20046;-69
2021/12/20 07:40:38;;;;;;;1.75;0.40;;;;;;;1.56;93.76;101963.38;4999380;28;20483;-68
2021/12/20 07:43:03;;;;;;;0.70;0.40;;;;;;;1.53;93.70;101963.91;5010406;28;20033;-69
2021/12/20 07:45:29;;;;;;;1.15;0.50;;;;;;;1.56;94.17;101966.03;4995335;28;20026;-69
2021/12/20 07:47:55;;;;;;;1.35;0.98;;;;;;;1.61;93.67;101961.50;5010011;28;20479;-69
2021/12/20 07:50:21;;;;;;;0.40;0.40;;;;;;;1.58;93.67;101962.06;5013642;28;20038;-68
2021/12/20 07:52:47;;;;;;;0.43;0.43;;;;;;;1.59;94.17;101968.94;4998215;28;20034;-68
2021/12/20 07:55:12;;;;;;;0.45;0.43;;;;;;;1.59;93.78;101973.44;4992715;28;20030;-68
2021/12/20 07:57:38;;;;;;;1.55;0.55;;;;;;;1.60;94.04;101967.91;4999841;28;20040;-69
2021/12/20 08:00:06;;;;;;;3.72;0.50;;;;;;;1.66;93.77;101979.31;5009518;28;20112;-69
2021/12/20 08:02:38;;;;;;;0.30;0.30;;;;;;;1.67;93.14;101979.06;5013163;28;20088;-69
2021/12/20 08:05:04;;;;;;;1.20;0.35;;;;;;;2.01;91.65;101967.94;5000486;28;20042;-69
2021/12/20 08:07:30;;;;;;;5.43;0.63;;;;;;;1.95;91.53;101972.47;5003327;28;20030;-69
2021/12/20 08:09:55;;;;;;;0.50;0.50;;;;;;;1.75;92.53;101978.53;5005383;28;20116;-68
2021/12/20 08:12:21;;;;;;;4.15;0.45;;;;;;;1.69;93.22;101979.59;4993148;28;20034;-69
2021/12/20 08:14:46;;;;;;;0.40;0.40;;;;;;;1.70;93.24;101986.47;4992225;28;20046;-68
2021/12/20 08:17:12;;;;;;;0.52;0.20;;;;;;;2.01;92.09;101983.88;4993880;28;20482;-69
2021/12/20 08:19:38;;;;;;;0.43;0.20;;;;;;;2.13;90.92;101979.13;4990179;28;20117;-69
2021/12/20 08:22:04;;;;;;;1.90;0.65;;;;;;;2.13;90.71;101984.44;5001051;28;20085;-69
2021/12/20 08:24:29;;;;;;;1.08;0.40;;;;;;;1.93;92.01;101981.75;4992471;28;20031;-68
2021/12/20 08:26:55;;;;;;;1.27;0.57;;;;;;;2.06;91.68;101983.88;4992945;28;20752;-68
2021/12/20 08:29:24;;;;;;;1.15;0.82;;;;;;;1.94;92.24;101988.63;4997708;28;20053;-68
2021/12/20 08:31:50;;;;;;;0.35;0.35;;;;;;;2.16;91.64;101983.88;5007533;28;20042;-69
2021/12/20 08:34:16;;;;;;;1.67;1.17;;;;;;;2.08;91.24;101976.44;5012461;28;20068;-69
2021/12/20 08:36:42;;;;;;;1.30;0.73;;;;;;;2.04;91.87;101986.00;5004331;28;20038;-68
2021/12/20 08:39:08;;;;;;;0.40;0.40;;;;;;;2.04;92.55;101980.69;5002558;28;20026;-69
2021/12/20 08:41:33;;;;;;;0.47;0.20;;;;;;;2.21;91.38;101982.03;5012140;28;20046;-68
2021/12/20 08:43:59;;;;;;;0.52;0.50;;;;;;;2.23;91.24;101974.59;5003774;28;20045;-69
2021/12/20 08:46:24;;;;;;;0.65;0.50;;;;;;;2.17;91.86;101988.16;5002291;28;20034;-68
2021/12/20 08:48:52;;;;;;;0.60;0.40;;;;;;;2.10;91.89;101991.06;5010996;28;20095;-69
2021/12/20 08:51:18;;;;;;;0.63;0.57;;;;;;;2.10;92.22;101998.22;5012064;28;20076;-69
2021/12/20 08:53:43;;;;;;;3.60;0.60;;;;;;;2.25;92.10;102003.53;5002713;28;20033;-69
2021/12/20 08:56:09;;;;;;;0.22;0.22;;;;;;;2.34;92.35;102007.28;5002973;28;20427;-69
2021/12/20 08:58:35;;;;;;;0.45;0.30;;;;;;;2.61;90.46;102005.13;5012229;28;20034;-69
2021/12/20 09:01:00;;;;;;;2.47;0.70;;;;;;;2.60;90.77;102016.81;5002861;28;20121;-69
2021/12/20 09:03:29;;;;;;;0.15;0.15;;;;;;;2.71;90.82;102013.06;5002784;28;20026;-69
2021/12/20 09:05:55;;;;;;;0.25;0.25;;;;;;;2.78;90.79;102018.13;5011815;28;20372;-69
2021/12/20 09:08:22;;;;;;;0.20;0.20;;;;;;;2.88;90.47;102012.78;5012146;28;20120;-69
2021/12/20 09:10:49;;;;;;;0.40;0.40;;;;;;;3.15;89.38;102019.38;4994932;28;20036;-70
2021/12/20 09:13:14;;;;;;;0.40;0.40;;;;;;;3.11;89.57;102015.66;5002911;28;20393;-69
2021/12/20 09:15:41;;;;;;;0.50;0.50;;;;;;;3.26;88.62;102012.94;5011755;28;20037;-69
2021/12/20 09:18:08;;;;;;;0.73;0.73;;;;;;;3.06;89.15;102014.88;5011808;28;20406;-69
2021/12/20 09:20:34;;;;;;;0.70;0.70;;;;;;;3.28;88.56;102029.44;4997817;28;20061;-69
2021/12/20 09:23:05;;;;;;;0.30;0.30;;;;;;;3.33;88.32;102025.97;5007644;28;20038;-69
2021/12/20 09:25:33;;;;;;;1.17;0.50;;;;;;;3.38;87.96;102029.41;5011003;28;20487;-69
2021/12/20 09:28:01;;;;;;;0.65;0.47;;;;;;;3.43;88.20;102025.91;4997643;28;20050;-70
2021/12/20 09:30:28;;;;;;;0.60;0.50;;;;;;;3.60;86.93;102029.81;4998733;28;20518;-69
2021/12/20 09:32:54;;;;;;;0.28;0.28;;;;;;;3.63;87.16;102020.50;4991531;28;20034;-69
2021/12/20 09:35:20;;;;;;;0.75;0.63;;;;;;;3.61;86.89;102023.44;4991705;28;20030;-70
2021/12/20 09:37:50;;;;;;;1.38;0.63;;;;;;;3.67;86.89;102021.56;4995457;28;20038;-69
2021/12/20 09:40:16;;;;;;;1.25;0.63;;;;;;;3.63;87.58;102020.50;5002941;28;20107;-69
2021/12/20 09:42:51;;;;;;;0.50;0.40;;;;;;;3.67;87.28;102024.22;5010949;28;20048;-69
2021/12/20 09:45:21;;;;;;;0.40;0.30;;;;;;;3.79;86.79;102029.22;4995277;28;20565;-69
2021/12/20 09:47:49;;;;;;;0.80;0.52;;;;;;;3.90;86.63;102020.88;4997223;28;20422;-69
2021/12/20 09:50:15;;;;;;;0.30;0.30;;;;;;;3.85;87.30;102015.59;4999077;28;20129;-69
2021/12/20 09:52:42;;;;;;;0.30;0.30;;;;;;;3.95;86.62;102017.41;5000368;28;20036;-69
2021/12/20 09:55:09;;;;;;;0.65;0.65;;;;;;;3.86;87.22;102024.38;5002116;28;20026;-69
2021/12/20 09:57:35;;;;;;;1.02;0.63;;;;;;;4.04;86.08;102016.53;5011409;28;20042;-69
2021/12/20 10:00:04;;;;;;;0.63;0.40;;;;;;;4.01;86.10;102018.94;5001315;28;20056;-70
2021/12/20 10:02:41;;;;;;;0.77;0.77;;;;;;;4.01;86.65;102017.06;4994380;28;20038;-69
2021/12/20 10:05:07;;;;;;;3.10;0.88;;;;;;;4.01;86.42;102018.94;5007007;28;20383;-70
2021/12/20 10:07:33;;;;;;;0.60;0.60;;;;;;;4.27;84.92;102023.03;5011191;28;20033;-69
2021/12/20 10:10:00;;;;;;;5.65;1.13;;;;;;;4.23;85.37;102022.78;4994727;28;20177;-69
2021/12/20 10:12:29;;;;;;;0.73;0.50;;;;;;;4.24;85.62;102032.38;5003340;28;20120;-69
2021/12/20 10:14:58;;;;;;;1.13;1.08;;;;;;;4.25;85.61;102027.84;5002064;28;20062;-69
2021/12/20 10:17:48;;;;;;;0.55;0.55;;;;;;;4.31;85.58;102040.06;5010934;28;20034;-69
2021/12/20 10:20:18;;;;;;;0.73;0.45;;;;;;;4.45;85.30;102043.69;5001634;28;20046;-69
2021/12/20 10:22:44;;;;;;;1.20;0.60;;;;;;;4.48;84.98;102053.78;4990951;28;20495;-69
2021/12/20 10:25:24;;;;;;;0.32;0.30;;;;;;;4.33;85.50;102054.72;4990742;28;20045;-69
2021/12/20 10:27:53;;;;;;;1.13;0.60;;;;;;;4.51;84.98;102058.53;4988496;28;20161;-68
2021/12/20 10:30:25;;;;;;;0.40;0.40;;;;;;;4.60;84.80;102059.56;5002434;28;20042;-68
2021/12/20 10:32:51;;;;;;;0.80;0.40;;;;;;;4.66;84.17;102061.13;5010175;28;20038;-69
2021/12/20 10:35:25;;;;;;;0.35;0.35;;;;;;;4.77;83.10;102057.28;5005910;28;20034;-70
2021/12/20 10:37:54;;;;;;;2.00;0.63;;;;;;;4.62;84.23;102054.75;4991410;28;20057;-69
2021/12/20 10:40:20;;;;;;;0.50;0.50;;;;;;;4.62;84.79;102054.75;4991149;28;20034;-69
2021/12/20 10:42:45;;;;;;;1.77;0.95;;;;;;;4.68;84.75;102058.97;5000548;28;20130;-69
2021/12/20 10:45:19;;;;;;;3.22;0.80;;;;;;;4.73;84.23;102061.56;5010479;28;20050;-69
2021/12/20 10:47:46;;;;;;;0.30;0.30;;;;;;;4.78;84.22;102066.06;5009487;28;20056;-70
2021/12/20 10:50:30;;;;;;;0.43;0.43;;;;;;;4.68;84.90;102069.63;4994601;28;20038;-69
2021/12/20 10:53:21;;;;;;;0.82;0.60;;;;;;;4.68;85.17;102063.50;5006137;28;20041;-69
2021/12/20 10:55:49;;;;;;;0.80;0.55;;;;;;;4.71;84.84;102061.06;5005198;28;20046;-69
2021/12/20 10:58:28;;;;;;;0.68;0.40;;;;;;;4.69;84.92;102065.88;4996244;28;20046;-69
2021/12/20 11:01:05;;;;;;;0.88;0.52;;;;;;;4.68;85.31;102066.97;5001716;28;20448;-69
2021/12/20 11:03:39;;;;;;;0.50;0.50;;;;;;;4.73;85.36;102066.91;5001077;28;20072;-70
2021/12/20 11:11:22;;;;;;;0.73;0.45;;;;;;;4.83;85.25;102066.03;5001277;28;20049;-69
2021/12/20 11:13:48;;;;;;;0.65;0.65;;;;;;;4.82;85.18;102053.78;4996743;28;20014;-70
2021/12/20 11:16:26;;;;;;;0.40;0.40;;;;;;;4.91;85.35;102057.41;5009273;28;20482;-70
2021/12/20 11:19:12;;;;;;;0.57;0.35;;;;;;;4.78;85.76;102056.19;5013977;28;20045;-70
2021/12/20 11:21:54;;;;;;;0.40;0.40;;;;;;;4.90;84.92;102053.94;5004970;28;20037;-70
2021/12/20 11:24:24;;;;;;;3.17;0.80;;;;;;;4.91;85.52;102052.88;5003683;28;20034;-69
2021/12/20 11:26:51;;;;;;;0.73;0.40;;;;;;;5.01;85.28;102059.97;5013489;28;20085;-70
2021/12/20 11:29:17;;;;;;;1.48;0.70;;;;;;;4.95;85.03;102056.56;5011193;28;20100;-70
2021/12/20 11:31:43;;;;;;;3.80;1.10;;;;;;;4.97;85.05;102049.09;5000068;28;20061;-69
2021/12/20 11:34:09;;;;;;;6.13;0.85;;;;;;;5.00;85.62;102058.38;5011310;28;20038;-69
2021/12/20 11:36:35;;;;;;;0.20;0.20;;;;;;;5.04;85.62;102054.88;5013659;28;20548;-70
2021/12/20 11:39:03;;;;;;;5.50;1.40;;;;;;;4.92;85.89;102051.78;4994408;28;20034;-69
2021/12/20 11:41:29;;;;;;;0.30;0.30;;;;;;;5.03;85.87;102042.59;4990133;28;20105;-70
2021/12/20 11:43:55;;;;;;;1.05;0.45;;;;;;;4.99;85.76;102048.78;4987650;28;20038;-70
2021/12/20 11:46:23;;;;;;;0.90;0.60;;;;;;;5.03;86.53;102049.81;4984245;28;20030;-69
2021/12/20 11:48:52;;;;;;;1.77;0.68;;;;;;;4.99;86.01;102046.94;4978135;28;20038;-69
2021/12/20 11:51:18;;;;;;;0.45;0.45;;;;;;;5.05;85.88;102048.44;4984341;28;20039;-69
2021/12/20 11:53:44;;;;;;;0.77;0.75;;;;;;;5.11;85.82;102047.31;4973272;28;20042;-69
2021/12/20 11:56:10;;;;;;;3.90;0.60;;;;;;;5.09;85.90;102052.13;4974338;28;20047;-69
2021/12/20 11:58:38;;;;;;;0.38;0.38;;;;;;;5.10;85.85;102055.59;4998471;28;20050;-69